sensor_id;sensor_type;location;lat;lon;timestamp;temperature;humidity
10046;DHT22;5063;50.878;4.742;2023-11-21T00:00:19;9.90;99.90
10046;DHT22;5063;50.878;4.742;2023-11-21T00:02:45;9.90;99.90
10046;DHT22;5063;50.878;4.742;2023-11-21T00:05:12;9.80;99.90
10046;DHT22;5063;50.878;4.742;2023-11-21T00:07:40;9.90;99.90
10046;DHT22;5063;50.878;4.742;2023-11-21T00:10:06;9.90;99.90
10046;DHT22;5063;50.878;4.742;2023-11-21T00:12:34;9.90;99.90
10046;DHT22;5063;50.878;4.742;2023-11-21T00:15:00;9.90;99.90
10046;DHT22;5063;50.878;4.742;2023-11-21T00:17:27;9.90;99.90
10046;DHT22;5063;50.878;4.742;2023-11-21T00:19:53;9.90;99.90
10046;DHT22;5063;50.878;4.742;2023-11-21T00:22:19;9.90;99.90
10046;DHT22;5063;50.878;4.742;2023-11-21T00:24:45;9.50;99.90
10046;DHT22;5063;50.878;4.742;2023-11-21T00:27:11;9.90;99.90
10046;DHT22;5063;50.878;4.742;2023-11-21T00:29:37;9.90;99.90
10046;DHT22;5063;50.878;4.742;2023-11-21T00:32:05;9.90;99.90
10046;DHT22;5063;50.878;4.742;2023-11-21T00:34:31;9.90;99.90
10046;DHT22;5063;50.878;4.742;2023-11-21T00:36:57;9.90;99.90
10046;DHT22;5063;50.878;4.742;2023-11-21T00:39:23;9.90;99.90
10046;DHT22;5063;50.878;4.742;2023-11-21T00:41:49;9.90;99.90
10046;DHT22;5063;50.878;4.742;2023-11-21T00:44:14;9.90;99.90
10046;DHT22;5063;50.878;4.742;2023-11-21T00:46:41;9.90;99.90
10046;DHT22;5063;50.878;4.742;2023-11-21T00:49:07;10.10;99.90
10046;DHT22;5063;50.878;4.742;2023-11-21T00:51:33;9.90;99.90
10046;DHT22;5063;50.878;4.742;2023-11-21T00:53:59;9.90;99.90
10046;DHT22;5063;50.878;4.742;2023-11-21T00:56:25;9.80;99.90
10046;DHT22;5063;50.878;4.742;2023-11-21T00:58:50;9.70;99.90
10046;DHT22;5063;50.878;4.742;2023-11-21T01:01:18;9.70;99.90
10046;DHT22;5063;50.878;4.742;2023-11-21T01:03:46;9.50;99.90
10046;DHT22;5063;50.878;4.742;2023-11-21T01:06:12;9.40;99.90
10046;DHT22;5063;50.878;4.742;2023-11-21T01:08:37;9.20;99.90
10046;DHT22;5063;50.878;4.742;2023-11-21T01:11:03;9.10;99.90
10046;DHT22;5063;50.878;4.742;2023-11-21T01:13:30;8.90;99.90
10046;DHT22;5063;50.878;4.742;2023-11-21T01:15:56;8.80;99.90
10046;DHT22;5063;50.878;4.742;2023-11-21T01:18:22;8.70;99.90
10046;DHT22;5063;50.878;4.742;2023-11-21T01:20:47;8.40;99.90
10046;DHT22;5063;50.878;4.742;2023-11-21T01:23:13;8.50;99.90
10046;DHT22;5063;50.878;4.742;2023-11-21T01:25:39;8.60;99.90
10046;DHT22;5063;50.878;4.742;2023-11-21T01:28:05;8.40;99.90
10046;DHT22;5063;50.878;4.742;2023-11-21T01:30:31;8.30;99.90
10046;DHT22;5063;50.878;4.742;2023-11-21T01:32:58;8.40;99.90
10046;DHT22;5063;50.878;4.742;2023-11-21T01:35:24;8.40;99.90
10046;DHT22;5063;50.878;4.742;2023-11-21T01:37:49;8.40;99.90
10046;DHT22;5063;50.878;4.742;2023-11-21T01:40:15;8.50;99.90
10046;DHT22;5063;50.878;4.742;2023-11-21T01:42:42;8.60;99.90
10046;DHT22;5063;50.878;4.742;2023-11-21T01:45:09;8.70;99.90
10046;DHT22;5063;50.878;4.742;2023-11-21T01:47:36;8.70;99.90
10046;DHT22;5063;50.878;4.742;2023-11-21T01:50:03;8.80;99.90
10046;DHT22;5063;50.878;4.742;2023-11-21T01:52:30;8.80;99.90
10046;DHT22;5063;50.878;4.742;2023-11-21T01:54:57;8.90;99.90
10046;DHT22;5063;50.878;4.742;2023-11-21T01:57:24;9.00;99.90
10046;DHT22;5063;50.878;4.742;2023-11-21T01:59:54;9.00;99.90
10046;DHT22;5063;50.878;4.742;2023-11-21T02:02:20;8.90;99.90
10046;DHT22;5063;50.878;4.742;2023-11-21T02:04:45;9.00;99.90
10046;DHT22;5063;50.878;4.742;2023-11-21T02:07:11;9.00;99.90
10046;DHT22;5063;50.878;4.742;2023-11-21T02:09:37;9.00;99.90
10046;DHT22;5063;50.878;4.742;2023-11-21T02:12:08;9.00;99.90
10046;DHT22;5063;50.878;4.742;2023-11-21T02:14:36;9.00;99.90
10046;DHT22;5063;50.878;4.742;2023-11-21T02:17:02;8.90;99.90
10046;DHT22;5063;50.878;4.742;2023-11-21T02:19:29;8.90;99.90
10046;DHT22;5063;50.878;4.742;2023-11-21T02:21:59;8.70;99.90
10046;DHT22;5063;50.878;4.742;2023-11-21T02:24:28;8.70;99.90
10046;DHT22;5063;50.878;4.742;2023-11-21T02:26:54;8.60;99.90
10046;DHT22;5063;50.878;4.742;2023-11-21T02:29:21;8.90;99.90
10046;DHT22;5063;50.878;4.742;2023-11-21T02:31:53;8.50;99.90
10046;DHT22;5063;50.878;4.742;2023-11-21T02:34:20;8.80;99.90
10046;DHT22;5063;50.878;4.742;2023-11-21T02:36:46;8.70;99.90
10046;DHT22;5063;50.878;4.742;2023-11-21T02:39:15;8.80;99.90
10046;DHT22;5063;50.878;4.742;2023-11-21T02:41:42;8.90;99.90
10046;DHT22;5063;50.878;4.742;2023-11-21T02:44:08;9.00;99.90
10046;DHT22;5063;50.878;4.742;2023-11-21T02:46:36;9.10;99.90
10046;DHT22;5063;50.878;4.742;2023-11-21T02:49:05;9.10;99.90
10046;DHT22;5063;50.878;4.742;2023-11-21T02:51:36;9.10;99.90
10046;DHT22;5063;50.878;4.742;2023-11-21T02:54:03;9.10;99.90
10046;DHT22;5063;50.878;4.742;2023-11-21T02:56:32;9.20;99.90
10046;DHT22;5063;50.878;4.742;2023-11-21T02:58:59;9.10;99.90
10046;DHT22;5063;50.878;4.742;2023-11-21T03:01:25;9.10;99.90
10046;DHT22;5063;50.878;4.742;2023-11-21T03:03:52;9.10;99.90
10046;DHT22;5063;50.878;4.742;2023-11-21T03:06:20;9.10;99.90
10046;DHT22;5063;50.878;4.742;2023-11-21T03:08:46;9.10;99.90
10046;DHT22;5063;50.878;4.742;2023-11-21T03:11:13;9.10;99.90
10046;DHT22;5063;50.878;4.742;2023-11-21T03:13:42;9.10;99.90
10046;DHT22;5063;50.878;4.742;2023-11-21T03:16:11;9.00;99.90
10046;DHT22;5063;50.878;4.742;2023-11-21T03:18:40;9.00;99.90
10046;DHT22;5063;50.878;4.742;2023-11-21T03:21:07;9.00;99.90
10046;DHT22;5063;50.878;4.742;2023-11-21T03:23:36;9.10;99.90
10046;DHT22;5063;50.878;4.742;2023-11-21T03:26:03;9.10;99.90
10046;DHT22;5063;50.878;4.742;2023-11-21T03:28:28;9.00;99.90
10046;DHT22;5063;50.878;4.742;2023-11-21T03:30:55;9.10;99.90
10046;DHT22;5063;50.878;4.742;2023-11-21T03:33:22;9.10;99.90
10046;DHT22;5063;50.878;4.742;2023-11-21T03:35:48;9.10;99.90
10046;DHT22;5063;50.878;4.742;2023-11-21T03:38:14;9.20;99.90
10046;DHT22;5063;50.878;4.742;2023-11-21T03:40:41;9.20;99.90
10046;DHT22;5063;50.878;4.742;2023-11-21T03:43:07;9.30;99.90
10046;DHT22;5063;50.878;4.742;2023-11-21T03:45:33;9.30;99.90
10046;DHT22;5063;50.878;4.742;2023-11-21T03:47:59;9.40;99.90
10046;DHT22;5063;50.878;4.742;2023-11-21T03:50:29;9.20;99.90
10046;DHT22;5063;50.878;4.742;2023-11-21T03:52:55;9.30;99.90
10046;DHT22;5063;50.878;4.742;2023-11-21T03:55:21;9.30;99.90
10046;DHT22;5063;50.878;4.742;2023-11-21T03:57:46;9.40;99.90
10046;DHT22;5063;50.878;4.742;2023-11-21T04:00:12;9.40;99.90
10046;DHT22;5063;50.878;4.742;2023-11-21T04:02:38;9.40;99.90
10046;DHT22;5063;50.878;4.742;2023-11-21T04:05:05;9.40;99.90
10046;DHT22;5063;50.878;4.742;2023-11-21T04:07:32;9.40;99.90
10046;DHT22;5063;50.878;4.742;2023-11-21T04:09:59;9.40;99.90
10046;DHT22;5063;50.878;4.742;2023-11-21T04:12:24;9.30;99.90
10046;DHT22;5063;50.878;4.742;2023-11-21T04:14:50;9.40;99.90
10046;DHT22;5063;50.878;4.742;2023-11-21T04:17:18;9.40;99.90
10046;DHT22;5063;50.878;4.742;2023-11-21T04:19:44;9.50;99.90
10046;DHT22;5063;50.878;4.742;2023-11-21T04:22:10;9.50;99.90
10046;DHT22;5063;50.878;4.742;2023-11-21T04:24:36;9.70;99.90
10046;DHT22;5063;50.878;4.742;2023-11-21T04:27:02;9.50;99.90
10046;DHT22;5063;50.878;4.742;2023-11-21T04:29:28;9.50;99.90
10046;DHT22;5063;50.878;4.742;2023-11-21T04:31:54;9.60;99.90
10046;DHT22;5063;50.878;4.742;2023-11-21T04:34:20;9.50;99.90
10046;DHT22;5063;50.878;4.742;2023-11-21T04:36:45;9.60;99.90
10046;DHT22;5063;50.878;4.742;2023-11-21T04:39:11;9.60;99.90
10046;DHT22;5063;50.878;4.742;2023-11-21T04:41:37;9.50;99.90
10046;DHT22;5063;50.878;4.742;2023-11-21T04:44:05;9.60;99.90
10046;DHT22;5063;50.878;4.742;2023-11-21T04:46:31;9.60;99.90
10046;DHT22;5063;50.878;4.742;2023-11-21T04:48:58;9.70;99.90
10046;DHT22;5063;50.878;4.742;2023-11-21T04:51:24;9.70;99.90
10046;DHT22;5063;50.878;4.742;2023-11-21T04:53:50;9.70;99.90
10046;DHT22;5063;50.878;4.742;2023-11-21T04:56:15;9.60;99.90
10046;DHT22;5063;50.878;4.742;2023-11-21T04:58:41;9.70;99.90
10046;DHT22;5063;50.878;4.742;2023-11-21T05:01:07;9.70;99.90
10046;DHT22;5063;50.878;4.742;2023-11-21T05:03:33;9.70;99.90
10046;DHT22;5063;50.878;4.742;2023-11-21T05:05:59;9.70;99.90
10046;DHT22;5063;50.878;4.742;2023-11-21T05:08:25;9.90;99.90
10046;DHT22;5063;50.878;4.742;2023-11-21T05:10:52;9.80;99.90
10046;DHT22;5063;50.878;4.742;2023-11-21T05:13:19;9.70;99.90
10046;DHT22;5063;50.878;4.742;2023-11-21T05:15:45;9.70;99.90
10046;DHT22;5063;50.878;4.742;2023-11-21T05:18:11;9.70;99.90
10046;DHT22;5063;50.878;4.742;2023-11-21T05:20:39;9.70;99.90
10046;DHT22;5063;50.878;4.742;2023-11-21T05:23:06;9.90;99.90
10046;DHT22;5063;50.878;4.742;2023-11-21T05:25:33;9.70;99.90
10046;DHT22;5063;50.878;4.742;2023-11-21T05:27:59;9.80;99.90
10046;DHT22;5063;50.878;4.742;2023-11-21T05:30:26;9.80;99.90
10046;DHT22;5063;50.878;4.742;2023-11-21T05:32:52;9.80;99.90
10046;DHT22;5063;50.878;4.742;2023-11-21T05:35:19;9.80;99.90
10046;DHT22;5063;50.878;4.742;2023-11-21T05:37:45;9.70;99.90
10046;DHT22;5063;50.878;4.742;2023-11-21T05:40:11;10.00;99.90
10046;DHT22;5063;50.878;4.742;2023-11-21T05:42:39;9.80;99.90
10046;DHT22;5063;50.878;4.742;2023-11-21T05:45:06;9.90;99.90
10046;DHT22;5063;50.878;4.742;2023-11-21T05:50:07;9.90;99.90
10046;DHT22;5063;50.878;4.742;2023-11-21T05:52:36;9.90;99.90
10046;DHT22;5063;50.878;4.742;2023-11-21T05:55:03;9.90;99.90
10046;DHT22;5063;50.878;4.742;2023-11-21T05:57:30;9.90;99.90
10046;DHT22;5063;50.878;4.742;2023-11-21T05:59:56;9.90;99.90
10046;DHT22;5063;50.878;4.742;2023-11-21T06:02:21;9.90;99.90
10046;DHT22;5063;50.878;4.742;2023-11-21T06:04:47;9.90;99.90
10046;DHT22;5063;50.878;4.742;2023-11-21T06:07:13;9.80;99.90
10046;DHT22;5063;50.878;4.742;2023-11-21T06:09:38;10.10;99.90
10046;DHT22;5063;50.878;4.742;2023-11-21T06:12:04;9.90;99.90
10046;DHT22;5063;50.878;4.742;2023-11-21T06:14:31;10.00;99.90
10046;DHT22;5063;50.878;4.742;2023-11-21T06:16:58;9.90;99.90
10046;DHT22;5063;50.878;4.742;2023-11-21T06:19:24;9.90;99.90
10046;DHT22;5063;50.878;4.742;2023-11-21T06:21:50;10.00;99.90
10046;DHT22;5063;50.878;4.742;2023-11-21T06:24:16;10.00;99.90
10046;DHT22;5063;50.878;4.742;2023-11-21T06:26:42;10.00;99.90
10046;DHT22;5063;50.878;4.742;2023-11-21T06:29:09;10.00;99.90
10046;DHT22;5063;50.878;4.742;2023-11-21T06:31:36;10.30;99.90
10046;DHT22;5063;50.878;4.742;2023-11-21T06:34:02;9.90;99.90
10046;DHT22;5063;50.878;4.742;2023-11-21T06:36:28;10.00;99.90
10046;DHT22;5063;50.878;4.742;2023-11-21T06:38:54;10.00;99.90
10046;DHT22;5063;50.878;4.742;2023-11-21T06:41:20;9.90;99.90
10046;DHT22;5063;50.878;4.742;2023-11-21T06:43:46;9.90;99.90
10046;DHT22;5063;50.878;4.742;2023-11-21T06:46:12;9.90;99.90
10046;DHT22;5063;50.878;4.742;2023-11-21T06:48:42;9.90;99.90
10046;DHT22;5063;50.878;4.742;2023-11-21T06:51:08;10.00;99.90
10046;DHT22;5063;50.878;4.742;2023-11-21T06:53:34;10.00;99.90
10046;DHT22;5063;50.878;4.742;2023-11-21T06:56:01;10.00;99.90
10046;DHT22;5063;50.878;4.742;2023-11-21T06:58:26;10.00;99.90
10046;DHT22;5063;50.878;4.742;2023-11-21T07:00:52;10.00;99.90
10046;DHT22;5063;50.878;4.742;2023-11-21T07:03:18;10.00;99.90
10046;DHT22;5063;50.878;4.742;2023-11-21T07:05:45;10.00;99.90
10046;DHT22;5063;50.878;4.742;2023-11-21T07:08:10;10.00;99.90
10046;DHT22;5063;50.878;4.742;2023-11-21T07:10:38;10.00;99.90
10046;DHT22;5063;50.878;4.742;2023-11-21T07:13:04;10.00;99.90
10046;DHT22;5063;50.878;4.742;2023-11-21T07:15:29;10.00;99.90
10046;DHT22;5063;50.878;4.742;2023-11-21T07:17:55;10.00;99.90
10046;DHT22;5063;50.878;4.742;2023-11-21T07:20:21;10.10;99.90
10046;DHT22;5063;50.878;4.742;2023-11-21T07:22:47;10.10;99.90
10046;DHT22;5063;50.878;4.742;2023-11-21T07:25:12;10.10;99.90
10046;DHT22;5063;50.878;4.742;2023-11-21T07:27:38;10.10;99.90
10046;DHT22;5063;50.878;4.742;2023-11-21T07:30:04;10.10;99.90
10046;DHT22;5063;50.878;4.742;2023-11-21T07:32:31;10.10;99.90
10046;DHT22;5063;50.878;4.742;2023-11-21T07:34:57;10.10;99.90
10046;DHT22;5063;50.878;4.742;2023-11-21T07:37:25;10.10;99.90
10046;DHT22;5063;50.878;4.742;2023-11-21T07:39:54;10.20;99.90
10046;DHT22;5063;50.878;4.742;2023-11-21T07:42:25;10.20;99.90
10046;DHT22;5063;50.878;4.742;2023-11-21T07:44:52;10.20;99.90
10046;DHT22;5063;50.878;4.742;2023-11-21T07:47:18;10.20;99.90
10046;DHT22;5063;50.878;4.742;2023-11-21T07:49:43;10.30;99.90
10046;DHT22;5063;50.878;4.742;2023-11-21T07:52:10;10.30;99.90
10046;DHT22;5063;50.878;4.742;2023-11-21T07:54:36;10.30;99.90
10046;DHT22;5063;50.878;4.742;2023-11-21T07:57:02;10.30;99.90
10046;DHT22;5063;50.878;4.742;2023-11-21T07:59:29;10.40;99.90
10046;DHT22;5063;50.878;4.742;2023-11-21T08:01:56;10.40;99.90
10046;DHT22;5063;50.878;4.742;2023-11-21T08:04:21;10.70;99.90
10046;DHT22;5063;50.878;4.742;2023-11-21T08:06:47;10.50;99.90
10046;DHT22;5063;50.878;4.742;2023-11-21T08:09:13;10.40;99.90
10046;DHT22;5063;50.878;4.742;2023-11-21T08:11:39;10.50;99.90
10046;DHT22;5063;50.878;4.742;2023-11-21T08:14:05;10.60;99.90
10046;DHT22;5063;50.878;4.742;2023-11-21T08:16:31;10.60;99.90
10046;DHT22;5063;50.878;4.742;2023-11-21T08:18:56;10.60;99.90
10046;DHT22;5063;50.878;4.742;2023-11-21T08:21:22;10.70;99.90
10046;DHT22;5063;50.878;4.742;2023-11-21T08:23:54;10.60;99.90
10046;DHT22;5063;50.878;4.742;2023-11-21T08:26:23;10.60;99.90
10046;DHT22;5063;50.878;4.742;2023-11-21T08:28:49;10.60;99.90
10046;DHT22;5063;50.878;4.742;2023-11-21T08:31:15;10.60;99.90
10046;DHT22;5063;50.878;4.742;2023-11-21T08:33:41;10.60;99.90
10046;DHT22;5063;50.878;4.742;2023-11-21T08:36:08;10.60;99.90
10046;DHT22;5063;50.878;4.742;2023-11-21T08:38:34;10.60;99.90
10046;DHT22;5063;50.878;4.742;2023-11-21T08:41:05;10.70;99.90
10046;DHT22;5063;50.878;4.742;2023-11-21T08:43:35;10.80;99.90
10046;DHT22;5063;50.878;4.742;2023-11-21T08:46:00;10.80;99.90
10046;DHT22;5063;50.878;4.742;2023-11-21T08:48:26;10.90;99.90
10046;DHT22;5063;50.878;4.742;2023-11-21T08:50:53;10.90;99.90
10046;DHT22;5063;50.878;4.742;2023-11-21T08:53:19;10.90;99.90
10046;DHT22;5063;50.878;4.742;2023-11-21T08:55:45;10.90;99.90
10046;DHT22;5063;50.878;4.742;2023-11-21T08:58:11;11.00;99.90
10046;DHT22;5063;50.878;4.742;2023-11-21T09:00:39;10.90;99.90
10046;DHT22;5063;50.878;4.742;2023-11-21T09:03:06;10.90;99.90
10046;DHT22;5063;50.878;4.742;2023-11-21T09:05:37;10.80;99.90
10046;DHT22;5063;50.878;4.742;2023-11-21T09:08:04;10.80;99.90
10046;DHT22;5063;50.878;4.742;2023-11-21T09:10:30;10.90;99.90
10046;DHT22;5063;50.878;4.742;2023-11-21T09:12:56;10.80;99.90
10046;DHT22;5063;50.878;4.742;2023-11-21T09:15:22;10.80;99.90
10046;DHT22;5063;50.878;4.742;2023-11-21T09:17:48;10.80;99.90
10046;DHT22;5063;50.878;4.742;2023-11-21T09:20:14;10.80;99.90
10046;DHT22;5063;50.878;4.742;2023-11-21T09:22:40;10.90;99.90
10046;DHT22;5063;50.878;4.742;2023-11-21T09:25:06;11.00;99.90
10046;DHT22;5063;50.878;4.742;2023-11-21T09:27:34;11.00;99.90
10046;DHT22;5063;50.878;4.742;2023-11-21T09:30:01;11.00;99.90
10046;DHT22;5063;50.878;4.742;2023-11-21T09:32:27;11.00;99.90
10046;DHT22;5063;50.878;4.742;2023-11-21T09:34:53;11.10;99.90
10046;DHT22;5063;50.878;4.742;2023-11-21T09:37:20;11.10;99.90
10046;DHT22;5063;50.878;4.742;2023-11-21T09:39:46;11.10;99.90
10046;DHT22;5063;50.878;4.742;2023-11-21T09:42:17;11.30;99.90
10046;DHT22;5063;50.878;4.742;2023-11-21T09:47:22;11.40;99.90
10046;DHT22;5063;50.878;4.742;2023-11-21T09:49:49;11.30;99.90
10046;DHT22;5063;50.878;4.742;2023-11-21T09:52:28;11.20;99.90
10046;DHT22;5063;50.878;4.742;2023-11-21T09:54:55;11.10;99.90
10046;DHT22;5063;50.878;4.742;2023-11-21T09:57:24;11.10;99.90
10046;DHT22;5063;50.878;4.742;2023-11-21T09:59:54;11.20;99.90
10046;DHT22;5063;50.878;4.742;2023-11-21T10:02:26;11.20;99.90
10046;DHT22;5063;50.878;4.742;2023-11-21T10:04:54;11.30;99.90
10046;DHT22;5063;50.878;4.742;2023-11-21T10:07:20;11.40;99.90
10046;DHT22;5063;50.878;4.742;2023-11-21T10:09:47;11.60;99.90
10046;DHT22;5063;50.878;4.742;2023-11-21T10:12:15;11.70;99.90
10046;DHT22;5063;50.878;4.742;2023-11-21T10:14:42;11.80;99.90
10046;DHT22;5063;50.878;4.742;2023-11-21T10:17:10;11.70;99.90
10046;DHT22;5063;50.878;4.742;2023-11-21T10:19:38;11.60;99.90
10046;DHT22;5063;50.878;4.742;2023-11-21T10:22:05;11.60;99.90
10046;DHT22;5063;50.878;4.742;2023-11-21T10:24:33;11.60;99.90
10046;DHT22;5063;50.878;4.742;2023-11-21T10:26:58;11.60;99.90
10046;DHT22;5063;50.878;4.742;2023-11-21T10:29:29;11.50;99.90
10046;DHT22;5063;50.878;4.742;2023-11-21T10:31:55;11.50;99.90
10046;DHT22;5063;50.878;4.742;2023-11-21T10:34:24;11.60;99.90
10046;DHT22;5063;50.878;4.742;2023-11-21T10:36:50;11.50;99.90
10046;DHT22;5063;50.878;4.742;2023-11-21T10:39:20;11.50;99.90
10046;DHT22;5063;50.878;4.742;2023-11-21T10:41:49;11.50;99.90
10046;DHT22;5063;50.878;4.742;2023-11-21T10:44:19;11.60;99.90
10046;DHT22;5063;50.878;4.742;2023-11-21T10:47:00;11.50;99.90
10046;DHT22;5063;50.878;4.742;2023-11-21T10:49:27;11.50;99.90
10046;DHT22;5063;50.878;4.742;2023-11-21T10:51:56;11.50;99.90
10046;DHT22;5063;50.878;4.742;2023-11-21T10:54:26;11.70;99.90
10046;DHT22;5063;50.878;4.742;2023-11-21T10:57:00;11.60;99.90
10046;DHT22;5063;50.878;4.742;2023-11-21T10:59:30;11.70;99.90
10046;DHT22;5063;50.878;4.742;2023-11-21T11:02:01;11.80;99.90
10046;DHT22;5063;50.878;4.742;2023-11-21T11:04:34;11.80;99.90
10046;DHT22;5063;50.878;4.742;2023-11-21T11:07:05;11.80;99.90
10046;DHT22;5063;50.878;4.742;2023-11-21T11:09:35;12.00;99.90
10046;DHT22;5063;50.878;4.742;2023-11-21T11:12:04;11.90;99.90
10046;DHT22;5063;50.878;4.742;2023-11-21T11:14:30;11.90;99.90
10046;DHT22;5063;50.878;4.742;2023-11-21T11:16:58;11.70;99.90
10046;DHT22;5063;50.878;4.742;2023-11-21T11:19:25;11.80;99.90
10046;DHT22;5063;50.878;4.742;2023-11-21T11:35:24;11.50;99.90
10046;DHT22;5063;50.878;4.742;2023-11-21T11:37:52;11.50;99.90
10046;DHT22;5063;50.878;4.742;2023-11-21T11:40:20;11.50;99.90
10046;DHT22;5063;50.878;4.742;2023-11-21T11:43:00;11.50;99.90
10046;DHT22;5063;50.878;4.742;2023-11-21T11:45:33;11.50;99.90
10046;DHT22;5063;50.878;4.742;2023-11-21T11:48:00;11.50;99.90
10046;DHT22;5063;50.878;4.742;2023-11-21T11:50:26;11.50;99.90
10046;DHT22;5063;50.878;4.742;2023-11-21T11:52:57;11.50;99.90
10046;DHT22;5063;50.878;4.742;2023-11-21T11:55:37;11.60;99.90
10046;DHT22;5063;50.878;4.742;2023-11-21T11:58:06;11.60;99.90
10046;DHT22;5063;50.878;4.742;2023-11-21T12:03:00;11.90;99.90
10046;DHT22;5063;50.878;4.742;2023-11-21T12:05:29;12.20;99.90
10046;DHT22;5063;50.878;4.742;2023-11-21T12:07:59;12.20;99.90
10046;DHT22;5063;50.878;4.742;2023-11-21T12:10:27;12.20;99.90
10046;DHT22;5063;50.878;4.742;2023-11-21T12:15:27;12.60;99.90
10046;DHT22;5063;50.878;4.742;2023-11-21T12:17:56;12.70;99.90
10046;DHT22;5063;50.878;4.742;2023-11-21T12:20:23;12.70;99.90
10046;DHT22;5063;50.878;4.742;2023-11-21T12:22:54;12.60;99.90
10046;DHT22;5063;50.878;4.742;2023-11-21T12:25:22;12.80;99.90
10046;DHT22;5063;50.878;4.742;2023-11-21T12:27:50;12.80;99.90
10046;DHT22;5063;50.878;4.742;2023-11-21T12:30:17;12.80;99.90
10046;DHT22;5063;50.878;4.742;2023-11-21T12:32:44;12.80;99.90
10046;DHT22;5063;50.878;4.742;2023-11-21T12:35:14;12.80;99.90
10046;DHT22;5063;50.878;4.742;2023-11-21T12:37:41;12.80;99.90
10046;DHT22;5063;50.878;4.742;2023-11-21T12:40:09;12.80;99.90
10046;DHT22;5063;50.878;4.742;2023-11-21T12:42:48;12.70;99.90
10046;DHT22;5063;50.878;4.742;2023-11-21T12:47:44;12.70;99.90
10046;DHT22;5063;50.878;4.742;2023-11-21T12:50:11;12.80;99.90
10046;DHT22;5063;50.878;4.742;2023-11-21T12:52:44;12.70;99.90
10046;DHT22;5063;50.878;4.742;2023-11-21T12:55:15;12.60;99.90
10046;DHT22;5063;50.878;4.742;2023-11-21T12:57:42;12.60;99.90
10046;DHT22;5063;50.878;4.742;2023-11-21T13:00:09;12.70;99.90
10046;DHT22;5063;50.878;4.742;2023-11-21T13:02:41;12.70;99.90
10046;DHT22;5063;50.878;4.742;2023-11-21T13:05:08;12.50;99.90
10046;DHT22;5063;50.878;4.742;2023-11-21T13:07:44;12.50;99.90
10046;DHT22;5063;50.878;4.742;2023-11-21T13:10:13;12.60;99.90
10046;DHT22;5063;50.878;4.742;2023-11-21T13:12:45;12.70;99.90
10046;DHT22;5063;50.878;4.742;2023-11-21T13:15:16;12.70;99.90
10046;DHT22;5063;50.878;4.742;2023-11-21T13:17:43;12.80;99.90
10046;DHT22;5063;50.878;4.742;2023-11-21T13:20:11;12.70;99.90
10046;DHT22;5063;50.878;4.742;2023-11-21T13:22:57;12.70;99.90
10046;DHT22;5063;50.878;4.742;2023-11-21T13:25:24;12.70;99.90
10046;DHT22;5063;50.878;4.742;2023-11-21T13:27:53;12.60;99.90
10046;DHT22;5063;50.878;4.742;2023-11-21T13:30:19;12.30;99.90
10046;DHT22;5063;50.878;4.742;2023-11-21T13:32:52;12.20;99.90
10046;DHT22;5063;50.878;4.742;2023-11-21T13:35:18;12.10;99.90
10046;DHT22;5063;50.878;4.742;2023-11-21T13:37:50;11.90;99.90
10046;DHT22;5063;50.878;4.742;2023-11-21T13:40:20;11.90;99.90
10046;DHT22;5063;50.878;4.742;2023-11-21T13:42:51;11.90;99.90
10046;DHT22;5063;50.878;4.742;2023-11-21T13:45:23;11.90;99.90
10046;DHT22;5063;50.878;4.742;2023-11-21T13:47:51;11.90;99.90
10046;DHT22;5063;50.878;4.742;2023-11-21T13:50:18;11.80;99.90
10046;DHT22;5063;50.878;4.742;2023-11-21T13:52:49;11.90;99.90
10046;DHT22;5063;50.878;4.742;2023-11-21T13:55:16;11.90;99.90
10046;DHT22;5063;50.878;4.742;2023-11-21T13:57:42;11.90;99.90
10046;DHT22;5063;50.878;4.742;2023-11-21T14:00:11;11.80;99.90
10046;DHT22;5063;50.878;4.742;2023-11-21T14:02:57;11.90;99.90
10046;DHT22;5063;50.878;4.742;2023-11-21T14:05:29;11.80;99.90
10046;DHT22;5063;50.878;4.742;2023-11-21T14:07:57;11.80;99.90
10046;DHT22;5063;50.878;4.742;2023-11-21T14:10:31;11.80;99.90
10046;DHT22;5063;50.878;4.742;2023-11-21T14:13:11;11.80;99.90
10046;DHT22;5063;50.878;4.742;2023-11-21T14:15:39;11.80;99.90
10046;DHT22;5063;50.878;4.742;2023-11-21T14:18:09;11.90;99.90
10046;DHT22;5063;50.878;4.742;2023-11-21T14:20:40;12.10;99.90
10046;DHT22;5063;50.878;4.742;2023-11-21T14:23:06;12.10;99.90
10046;DHT22;5063;50.878;4.742;2023-11-21T14:25:36;12.10;99.90
10046;DHT22;5063;50.878;4.742;2023-11-21T14:28:03;12.10;99.90
10046;DHT22;5063;50.878;4.742;2023-11-21T14:30:29;12.10;99.90
10046;DHT22;5063;50.878;4.742;2023-11-21T14:32:58;12.20;99.90
10046;DHT22;5063;50.878;4.742;2023-11-21T14:35:24;12.20;99.90
10046;DHT22;5063;50.878;4.742;2023-11-21T14:37:50;12.20;99.90
10046;DHT22;5063;50.878;4.742;2023-11-21T14:40:16;12.20;99.90
10046;DHT22;5063;50.878;4.742;2023-11-21T14:42:43;12.20;99.90
10046;DHT22;5063;50.878;4.742;2023-11-21T14:45:13;12.20;99.90
10046;DHT22;5063;50.878;4.742;2023-11-21T14:47:44;12.30;99.90
10046;DHT22;5063;50.878;4.742;2023-11-21T14:50:14;12.30;99.90
10046;DHT22;5063;50.878;4.742;2023-11-21T14:53:10;12.30;99.90
10046;DHT22;5063;50.878;4.742;2023-11-21T14:55:38;12.20;99.90
10046;DHT22;5063;50.878;4.742;2023-11-21T14:58:16;12.10;99.90
10046;DHT22;5063;50.878;4.742;2023-11-21T15:00:53;12.00;99.90
10046;DHT22;5063;50.878;4.742;2023-11-21T15:03:24;11.70;99.90
10046;DHT22;5063;50.878;4.742;2023-11-21T15:06:09;11.50;99.90
10046;DHT22;5063;50.878;4.742;2023-11-21T15:08:53;11.40;99.90
10046;DHT22;5063;50.878;4.742;2023-11-21T15:11:25;11.40;99.90
10046;DHT22;5063;50.878;4.742;2023-11-21T15:13:57;11.30;99.90
10046;DHT22;5063;50.878;4.742;2023-11-21T15:16:23;11.30;99.90
10046;DHT22;5063;50.878;4.742;2023-11-21T15:18:49;11.30;99.90
10046;DHT22;5063;50.878;4.742;2023-11-21T15:21:14;11.20;99.90
10046;DHT22;5063;50.878;4.742;2023-11-21T15:23:40;11.40;99.90
10046;DHT22;5063;50.878;4.742;2023-11-21T15:26:07;11.20;99.90
10046;DHT22;5063;50.878;4.742;2023-11-21T15:28:35;11.10;99.90
10046;DHT22;5063;50.878;4.742;2023-11-21T15:31:01;11.10;99.90
10046;DHT22;5063;50.878;4.742;2023-11-21T15:33:28;11.10;99.90
10046;DHT22;5063;50.878;4.742;2023-11-21T15:35:54;11.00;99.90
10046;DHT22;5063;50.878;4.742;2023-11-21T15:38:20;11.00;99.90
10046;DHT22;5063;50.878;4.742;2023-11-21T15:40:47;11.00;99.90
10046;DHT22;5063;50.878;4.742;2023-11-21T15:43:13;11.00;99.90
10046;DHT22;5063;50.878;4.742;2023-11-21T15:45:39;11.00;99.90
10046;DHT22;5063;50.878;4.742;2023-11-21T15:48:05;11.10;99.90
10046;DHT22;5063;50.878;4.742;2023-11-21T15:50:31;11.10;99.90
10046;DHT22;5063;50.878;4.742;2023-11-21T15:52:57;11.20;99.90
10046;DHT22;5063;50.878;4.742;2023-11-21T15:55:24;11.20;99.90
10046;DHT22;5063;50.878;4.742;2023-11-21T15:57:49;11.20;99.90
10046;DHT22;5063;50.878;4.742;2023-11-21T16:00:15;11.20;99.90
10046;DHT22;5063;50.878;4.742;2023-11-21T16:02:45;11.40;99.90
10046;DHT22;5063;50.878;4.742;2023-11-21T16:05:11;11.30;99.90
10046;DHT22;5063;50.878;4.742;2023-11-21T16:07:43;11.30;99.90
10046;DHT22;5063;50.878;4.742;2023-11-21T16:10:10;11.30;99.90
10046;DHT22;5063;50.878;4.742;2023-11-21T16:12:42;11.30;99.90
10046;DHT22;5063;50.878;4.742;2023-11-21T16:15:08;11.20;99.90
10046;DHT22;5063;50.878;4.742;2023-11-21T16:17:38;11.20;99.90
10046;DHT22;5063;50.878;4.742;2023-11-21T16:20:05;11.20;99.90